• Join FlightAware (Why Join?)
  • Login
  • US Flag 
11:32AM EDT


 

Airport Tracker/Info


-or-


 

Live Flight TrackerFlight Track Log ✈ AWI4007 ✈ 09-May-2013 ✈ KPHL - KMCI

Flight Track Log - Related Links

Times and Time Zones

All times are in EDT time to prevent confusion due to time zone crossing. See the AWI4007 flight status page for this flight to view local times or setup timezone preferences in your user account.

Time Position Orientation Groundspeed Altitude Reporting Facility
EDT Latitude Longitude Course Direction KTS MPH feet Rate Location/Type
08:14AM 39.8667 -75.2833 270° West 159 183 600  Level Philadelphia TRACON
08:15AM 39.8500 -75.3667 255° West 203 234 3,000 2,280 Climbing Philadelphia TRACON
08:16AM 39.9018 -75.5921 285° West  Level FlightAware Approximate
08:17AM 39.9088 -75.7140 258° West  Level FlightAware Approximate
08:17AM 39.9150 -75.4369 320° Northwest 233 268 7,700  Level New York Center
08:18AM 39.9000 -75.8382 270° West  Level FlightAware Approximate
08:18AM 39.9647 -75.4942 319° Northwest 222 255 9,300  Level New York Center
08:19AM 39.9000 -75.9636 270° West  Level FlightAware Approximate
08:19AM 39.9425 -75.5794 251° West 220 253 11,300  Level New York Center
08:20AM 39.9231 -75.6944 258° West 282 325 12,000 1,140 Climbing New York Center
08:21AM 39.9269 -75.8031 273° West 329 379 13,700 1,680 Climbing New York Center
08:22AM 39.9317 -75.9361 273° West 335 386 15,400 1,500 Climbing New York Center
08:23AM 39.9369 -76.0531 273° West 355 409 16,700 1,380 Climbing New York Center
08:24AM 39.9408 -76.1942 272° West 364 419 18,200 1,200 Climbing New York Center
08:25AM 39.9458 -76.3108 273° West 370 426 19,200 960 Climbing New York Center
08:26AM 39.9478 -76.4439 271° West 370 426 20,200 840 Climbing New York Center
08:27AM 39.9539 -76.5797 273° West 370 426 21,000 780 Climbing New York Center
08:28AM 39.9572 -76.7181 272° West 370 426 21,800 780 Climbing New York Center
08:29AM 39.9625 -76.8594 273° West 380 437 22,600 780 Climbing New York Center
08:30AM 39.9658 -76.9981 272° West 387 445 23,400 840 Climbing New York Center
08:31AM 39.9706 -77.1419 272° West 393 452 24,300 780 Climbing New York Center
08:32AM 39.9756 -77.2806 273° West 393 452 25,100 1,080 Climbing New York Center
08:33AM 39.9822 -77.5267 272° West 379 436 27,300 1,080 Climbing Cleveland Center
08:34AM 39.9881 -77.6619 273° West 379 436 28,100 660 Climbing Cleveland Center
08:35AM 39.9892 -77.7975 271° West 379 436 28,700 480 Climbing Cleveland Center
08:36AM 39.9925 -77.9328 272° West 379 436 29,100 420 Climbing Cleveland Center
08:37AM 39.9956 -78.0681 272° West 384 442 29,600 540 Climbing Cleveland Center
08:38AM 39.9986 -78.2064 272° West 384 442 30,200 540 Climbing Cleveland Center
08:39AM 40.0033 -78.3444 273° West 384 442 30,700 480 Climbing Cleveland Center
08:40AM 40.0039 -78.4797 270° West 384 442 31,200 480 Climbing Cleveland Center
08:41AM 40.0086 -78.6181 273° West 384 442 31,700 480 Climbing Cleveland Center
08:42AM 40.0086 -78.7536 270° West 384 442 32,200 480 Climbing Cleveland Center
08:43AM 40.0108 -78.8864 271° West 384 442 32,700 480 Climbing Cleveland Center
08:44AM 40.0128 -79.0217 271° West 384 442 33,200 480 Climbing Cleveland Center
08:45AM 40.0122 -79.1519 270° West 379 436 33,700 300 Climbing Cleveland Center
08:46AM 40.0139 -79.2847 271° West 374 430 33,900 120 Climbing Cleveland Center
08:47AM 40.0153 -79.4203 271° West 369 425 34,000  Climbing Cleveland Center
08:48AM 40.0167 -79.5394 271° West 369 425 34,000  Level Cleveland Center
08:49AM 40.0178 -79.6778 271° West 369 425 34,000  Level Cleveland Center
08:50AM 40.0189 -79.8214 271° West 381 438 34,000  Level Cleveland Center
08:51AM 40.0175 -79.9622 269° West 391 450 34,000  Level Cleveland Center
08:52AM 40.0183 -80.1086 270° West 391 450 34,000  Level Cleveland Center
08:53AM 40.0208 -80.2522 271° West 403 464 34,000  Level Cleveland Center
08:54AM 40.0253 -80.4014 272° West 403 464 34,000  Level Cleveland Center
08:55AM 40.0275 -80.5506 271° West 403 464 34,000  Level Cleveland Center
08:56AM 40.0294 -80.6969 271° West 403 464 34,000  Level Cleveland Center
08:57AM 40.0314 -80.8461 271° West 403 464 34,000  Level Cleveland Center
08:59AM 40.0331 -81.0794 271° West 403 464 34,000  Level Indianapolis Center
09:00AM 40.0350 -81.2269 271° West 403 464 34,000  Level Indianapolis Center
09:01AM 40.0364 -81.3778 271° West 408 470 34,000  Level Indianapolis Center
09:02AM 40.0381 -81.5261 271° West 405 466 34,000  Level Indianapolis Center
09:03AM 40.0403 -81.6992 271° West 405 466 34,000  Level Indianapolis Center
09:04AM 40.0419 -81.8303 271° West 406 467 34,000  Level Indianapolis Center
09:05AM 40.0431 -82.0008 271° West 400 460 34,000  Level Indianapolis Center
09:06AM 40.0436 -82.1500 270° West 406 467 34,000  Level Indianapolis Center
09:07AM 40.0436 -82.2972 270° West 403 464 34,000  Level Indianapolis Center
09:08AM 40.0447 -82.4439 271° West 401 461 34,000  Level Indianapolis Center
09:09AM 40.0450 -82.5894 270° West 399 459 34,000  Level Indianapolis Center
09:10AM 40.0456 -82.7336 270° West 396 456 34,000  Level Indianapolis Center
09:11AM 40.0450 -82.8772 270° West 394 453 34,000  Level Indianapolis Center
09:12AM 40.0456 -83.0181 270° West 387 445 34,000  Level Indianapolis Center
09:13AM 40.0450 -83.1839 270° West 388 447 34,000  Level Indianapolis Center
09:14AM 40.0444 -83.3253 270° West 390 449 34,000  Level Indianapolis Center
09:15AM 40.0444 -83.4653 270° West 388 447 34,000  Level Indianapolis Center
09:16AM 40.0431 -83.6061 269° West 390 449 34,000  Level Indianapolis Center
09:17AM 40.0411 -83.7458 269° West 387 445 34,000  Level Indianapolis Center
09:18AM 40.0400 -83.9106 270° West 387 445 34,000  Level Indianapolis Center
09:20AM 40.0383 -84.0539 269° West 391 450 34,000  Level Indianapolis Center
09:21AM 40.0381 -84.1956 270° West 389 448 34,000  Level Indianapolis Center
09:22AM 40.0356 -84.3383 269° West 391 450 34,000  Level Indianapolis Center
09:23AM 40.0331 -84.4800 269° West 391 450 34,000  Level Indianapolis Center
09:24AM 40.0300 -84.6231 268° West 392 451 34,000  Level Indianapolis Center
09:25AM 40.0272 -84.7897 269° West 392 451 34,000  Level Indianapolis Center
09:26AM 40.0250 -84.9267 269° West 387 445 34,000  Level Indianapolis Center
09:27AM 40.0231 -85.0689 269° West 392 451 34,000  Level Indianapolis Center
09:28AM 40.0200 -85.2069 268° West 385 443 34,000  Level Indianapolis Center
09:29AM 40.0161 -85.3469 268° West 387 445 34,000  Level Indianapolis Center
09:30AM 40.0147 -85.4561 269° West 382 440 34,000  Level Indianapolis Center
09:31AM 40.0108 -85.6214 268° West 382 440 34,000  Level Indianapolis Center
09:32AM 40.0075 -85.7567 268° West 377 434 34,000  Level Indianapolis Center
09:33AM 40.0039 -85.8919 268° West 377 434 34,000  Level Indianapolis Center
09:34AM 40.0008 -86.0253 268° West 373 429 34,000  Level Indianapolis Center
09:35AM 39.9969 -86.1589 268° West 373 429 34,000  Level Indianapolis Center
09:35AM 39.9950 -86.2114 267° West 374 430 34,000  Level Chicago Center
09:36AM 39.9900 -86.3697 268° West 371 427 34,000  Level Chicago Center
09:37AM 39.9881 -86.4492 268° West 370 426 34,000  Level Indianapolis Center
09:38AM 39.9831 -86.5817 267° West 370 426 34,000  Level Indianapolis Center
09:39AM 39.9783 -86.7131 267° West 369 425 34,000  Level Indianapolis Center
09:40AM 39.9739 -86.8725 268° West 367 422 34,000  Level Indianapolis Center
09:41AM 39.9686 -87.0050 267° West 369 425 34,000  Level Indianapolis Center
09:42AM 39.9642 -87.1383 268° West 370 426 34,000  Level Indianapolis Center
09:43AM 39.9583 -87.2722 267° West 372 428 34,000  Level Indianapolis Center
09:44AM 39.9531 -87.4072 267° West 374 430 34,000  Level Indianapolis Center
09:45AM 39.9464 -87.5681 267° West 373 429 34,000  Level Indianapolis Center
09:46AM 39.9411 -87.7019 267° West 372 428 34,000  Level Indianapolis Center
09:47AM 39.9347 -87.8367 267° West 375 432 34,000  Level Indianapolis Center
09:48AM 39.9306 -87.9450 267° West 374 430 34,000  Level Chicago Center
09:49AM 39.9242 -88.0792 266° West 373 429 34,000  Level Chicago Center
09:50AM 39.9189 -88.2117 267° West 373 429 34,000  Level Chicago Center
09:51AM 39.9097 -88.3486 265° West 376 433 34,000  Level Chicago Center
09:52AM 39.9053 -88.4819 268° West 373 429 34,000  Level Chicago Center
09:53AM 39.8972 -88.6442 266° West 374 430 34,000  Level Chicago Center
09:54AM 39.8894 -88.7833 266° West 377 434 34,000  Level Kansas City Center
09:55AM 39.8828 -88.9208 266° West 380 437 34,000  Level Kansas City Center
09:56AM 39.8744 -89.0589 266° West 381 438 34,000  Level Kansas City Center
09:57AM 39.8664 -89.1992 266° West 386 444 34,000  Level Kansas City Center
09:58AM 39.8575 -89.3686 266° West 389 448 34,000  Level Kansas City Center
09:59AM 39.8494 -89.5094 266° West 390 449 34,000  Level Kansas City Center
10:00AM 39.8406 -89.6503 265° West 390 449 34,000  Level Kansas City Center
10:01AM 39.8408 -89.7917 270° West 391 450 34,000  Level Kansas City Center
10:02AM 39.8425 -89.9308 271° West 386 444 34,000  Level Kansas City Center
10:03AM 39.8439 -90.0711 271° West 387 445 34,000  Level Kansas City Center
10:05AM 39.8450 -90.2128 271° West 389 448 34,000  Level Kansas City Center
10:06AM 39.8458 -90.3542 270° West 390 449 34,000 -1,020 Level Kansas City Center
10:07AM 39.8478 -90.4931 271° West 387 445 32,000 -2,160 Descending Kansas City Center
10:08AM 39.8478 -90.6597 270° West 383 441 29,600 -2,160 Descending Kansas City Center
10:09AM 39.8492 -90.7986 271° West 384 442 27,600 -1,800 Descending Kansas City Center
10:10AM 39.8494 -90.9358 270° West 381 438 26,000 -840 Descending Kansas City Center
10:11AM 39.8492 -91.0569 270° West 368 423 26,000  Level Kansas City Center
10:12AM 39.8489 -91.1883 270° West 365 420 26,000  Level Kansas City Center
10:13AM 39.8450 -91.3467 268° West 367 422 26,000  Level Kansas City Center
10:14AM 39.8331 -91.4800 263° West 371 427 26,000  Level Kansas City Center
10:15AM 39.8225 -91.6156 264° West 376 433 26,000  Level Kansas City Center
10:16AM 39.8131 -91.7458 265° West 369 425 26,000  Level Kansas City Center
10:17AM 39.8031 -91.8714 264° West 357 411 26,000  Level Kansas City Center
10:18AM 39.7939 -91.9928 264° West 346 398 26,000  Level Kansas City Center
10:19AM 39.7847 -92.1139 264° West 340 391 26,000  Level Kansas City Center
10:20AM 39.7731 -92.2567 264° West 335 386 26,000  Level Kansas City Center
10:21AM 39.7628 -92.3781 264° West 336 387 26,000  Level Kansas City Center
10:22AM 39.7531 -92.5003 264° West 339 390 26,000  Level Kansas City Center
10:23AM 39.7428 -92.6236 264° West 341 392 26,000  Level Kansas City Center
10:24AM 39.7319 -92.7478 264° West 345 397 26,000 -240 Level Kansas City Center
10:25AM 39.7206 -92.8808 264° West 361 415 25,600 -1,260 Descending Kansas City Center
10:26AM 39.7092 -93.0156 264° West 373 429 23,500 -2,160 Descending Kansas City Center
10:27AM 39.6961 -93.1642 264° West 352 405 21,200 -2,100 Descending Kansas City Center
10:28AM 39.6842 -93.2833 263° West 338 389 19,200 -2,040 Descending Kansas City Center
10:29AM 39.6750 -93.4008 264° West 331 381 17,100 -2,040 Descending Kansas City Center
10:30AM 39.6653 -93.5119 264° West 323 372 15,100 -1,920 Descending Kansas City Center
10:31AM 39.6542 -93.6231 263° West 315 362 13,200 -1,500 Descending Kansas City Center
10:32AM 39.6425 -93.7475 263° West 303 349 12,000 -1,560 Descending Kansas City Center
10:33AM 39.6317 -93.8533 262° West 289 333 10,100 -1,020 Descending Kansas City Center
10:34AM 39.6069 -93.9472 251° West 287 330 10,000 -60 Descending Kansas City Center
10:35AM 39.5808 -94.0414 250° West 288 331 10,000  Level Kansas City Center
10:36AM 39.5497 -94.1533 250° West 294 338 10,000 -780 Level Kansas City Center
10:37AM 39.5272 -94.2378 251° West 263 303 8,500 -1,740 Descending Kansas City Center
10:38AM 39.5000 -94.3331 250° West 252 290 6,500 -1,260 Descending Kansas City Center
10:39AM 39.4778 -94.4161 251° West 253 291 6,000 -780 Descending Kansas City Center
10:40AM 39.4511 -94.5108 250° West 251 289 5,000 -1,320 Descending Kansas City Center
10:42AM 39.4286 -94.5903 250° West 247 284 3,300 -1,680 Descending Kansas City Center